createdAt,value
2022-08-31T00:00:36.132Z,1.80
2022-08-31T00:03:23.727Z,1.40
2022-08-31T00:05:56.027Z,1.50
2022-08-31T00:08:24.101Z,1.50
2022-08-31T00:10:52.374Z,1.40
2022-08-31T00:13:19.985Z,1.40
2022-08-31T00:15:47.783Z,1.50
2022-08-31T00:18:16.669Z,1.50
2022-08-31T00:20:45.553Z,1.27
2022-08-31T00:23:15.906Z,1.60
2022-08-31T00:25:45.999Z,1.83
2022-08-31T00:28:14.391Z,1.60
2022-08-31T00:30:42.563Z,1.70
2022-08-31T00:33:11.841Z,1.92
2022-08-31T00:35:44.594Z,1.77
2022-08-31T00:38:12.717Z,1.60
2022-08-31T00:40:44.531Z,1.70
2022-08-31T00:43:33.640Z,1.60
2022-08-31T00:46:01.186Z,1.70
2022-08-31T00:48:28.821Z,1.63
2022-08-31T00:50:58.156Z,1.60
2022-08-31T00:53:26.452Z,1.55
2022-08-31T00:55:54.042Z,1.70
2022-08-31T00:58:22.085Z,1.75
2022-08-31T01:00:50.072Z,1.63
2022-08-31T01:03:18.512Z,1.67
2022-08-31T01:05:46.665Z,1.70
2022-08-31T01:08:14.692Z,1.88
2022-08-31T01:10:45.027Z,1.80
2022-08-31T01:13:14.920Z,1.83
2022-08-31T01:15:50.433Z,1.70
2022-08-31T01:18:24.888Z,2.00
2022-08-31T01:21:12.959Z,1.67
2022-08-31T01:23:45.065Z,2.00
2022-08-31T01:26:18.390Z,1.70
2022-08-31T01:28:45.865Z,2.20
2022-08-31T01:31:29.204Z,1.83
2022-08-31T01:33:57.455Z,1.85
2022-08-31T01:36:26.675Z,2.10
2022-08-31T01:38:54.529Z,2.10
2022-08-31T01:41:22.969Z,1.90
2022-08-31T01:43:53.178Z,1.80
2022-08-31T01:46:21.295Z,2.15
2022-08-31T01:48:49.466Z,2.10
2022-08-31T01:51:22.353Z,2.03
2022-08-31T01:53:52.476Z,2.00
2022-08-31T01:56:24.856Z,1.77
2022-08-31T01:58:53.521Z,1.80
2022-08-31T02:01:33.510Z,2.00
2022-08-31T02:04:04.676Z,2.00
2022-08-31T02:06:33.130Z,1.95
2022-08-31T02:09:01.941Z,2.00
2022-08-31T02:11:29.380Z,1.85
2022-08-31T02:13:56.996Z,1.77
2022-08-31T02:16:24.745Z,1.90
2022-08-31T02:18:52.623Z,2.03
2022-08-31T02:21:20.077Z,1.80
2022-08-31T02:23:47.633Z,1.58
2022-08-31T02:26:15.449Z,1.75
2022-08-31T02:28:42.881Z,1.73
2022-08-31T02:31:10.303Z,1.80
2022-08-31T02:33:37.939Z,1.73
2022-08-31T02:36:06.303Z,1.83
2022-08-31T02:38:36.036Z,1.67
2022-08-31T02:41:04.325Z,1.55
2022-08-31T02:43:32.703Z,1.77
2022-08-31T02:46:00.162Z,1.70
2022-08-31T02:48:27.901Z,1.50
2022-08-31T02:51:02.274Z,1.38
2022-08-31T02:53:29.821Z,1.67
2022-08-31T02:55:57.284Z,1.13
2022-08-31T02:58:24.893Z,1.58
2022-08-31T03:00:52.827Z,1.58
2022-08-31T03:03:22.055Z,1.00
2022-08-31T03:05:50.450Z,1.10
2022-08-31T03:08:18.286Z,1.17
2022-08-31T03:10:45.853Z,1.30
2022-08-31T03:13:17.709Z,1.20
2022-08-31T03:15:45.487Z,1.27
2022-08-31T03:18:12.948Z,1.30
2022-08-31T03:20:40.525Z,1.20
2022-08-31T03:23:08.101Z,1.30
2022-08-31T03:25:36.104Z,1.02
2022-08-31T03:28:07.578Z,1.30
2022-08-31T03:30:35.197Z,1.30
2022-08-31T03:33:03.099Z,1.20
2022-08-31T03:35:31.172Z,0.90
2022-08-31T03:37:59.189Z,1.10
2022-08-31T03:40:26.632Z,0.95
2022-08-31T03:42:54.211Z,1.15
2022-08-31T03:45:21.680Z,1.20
2022-08-31T03:47:49.263Z,0.98
2022-08-31T03:50:16.913Z,1.20
2022-08-31T03:52:44.438Z,0.90
2022-08-31T03:55:13.016Z,1.02
2022-08-31T03:57:40.926Z,0.90
2022-08-31T04:00:09.640Z,0.95
2022-08-31T04:02:40.259Z,1.00
2022-08-31T04:05:10.137Z,1.10
2022-08-31T04:07:42.730Z,1.05
2022-08-31T04:10:12.798Z,1.00
2022-08-31T04:12:41.110Z,0.93
2022-08-31T04:15:10.219Z,1.13
2022-08-31T04:17:40.772Z,0.80
2022-08-31T04:20:08.843Z,1.10
2022-08-31T04:22:37.771Z,1.10
2022-08-31T04:25:06.162Z,1.10
2022-08-31T04:27:33.582Z,0.80
2022-08-31T04:30:02.433Z,1.20
2022-08-31T04:32:30.141Z,1.30
2022-08-31T04:34:58.194Z,0.90
2022-08-31T04:37:27.084Z,0.80
2022-08-31T04:39:59.154Z,1.00
2022-08-31T04:42:30.417Z,1.10
2022-08-31T04:44:58.087Z,1.00
2022-08-31T04:47:25.894Z,0.90
2022-08-31T04:49:53.403Z,1.00
2022-08-31T04:52:23.918Z,1.00
2022-08-31T04:54:56.205Z,0.60
2022-08-31T04:57:23.687Z,0.93
2022-08-31T04:59:51.211Z,1.05
2022-08-31T05:02:19.411Z,1.08
2022-08-31T05:04:47.668Z,0.90
2022-08-31T05:07:20.447Z,0.90
2022-08-31T05:09:50.563Z,1.13
2022-08-31T05:12:29.822Z,0.98
2022-08-31T05:14:58.821Z,0.98
2022-08-31T05:17:48.938Z,0.77
2022-08-31T05:25:53.169Z,0.93
2022-08-31T05:28:24.211Z,0.90
2022-08-31T05:30:54.588Z,0.98
2022-08-31T05:33:26.874Z,0.80
2022-08-31T05:35:57.302Z,0.80
2022-08-31T05:38:27.488Z,1.00
2022-08-31T05:40:56.340Z,1.00
2022-08-31T05:43:24.993Z,1.20
2022-08-31T05:45:55.383Z,0.93
2022-08-31T05:48:23.620Z,0.80
2022-08-31T05:51:04.366Z,0.70
2022-08-31T05:53:35.455Z,0.90
2022-08-31T05:56:12.835Z,0.80
2022-08-31T05:58:46.179Z,0.80
2022-08-31T06:01:47.222Z,0.90
2022-08-31T06:04:17.071Z,1.00
2022-08-31T06:06:51.401Z,0.80
2022-08-31T06:09:36.496Z,0.90
2022-08-31T06:12:07.598Z,0.90
2022-08-31T06:14:39.129Z,1.00
2022-08-31T06:17:07.352Z,0.88
2022-08-31T06:19:40.257Z,0.57
2022-08-31T06:22:08.514Z,0.80
2022-08-31T06:25:03.946Z,0.90
2022-08-31T06:27:39.087Z,0.50
2022-08-31T06:30:20.957Z,0.70
2022-08-31T06:35:41.065Z,1.95
2022-08-31T06:41:04.038Z,1.17
2022-08-31T06:43:56.983Z,0.90
2022-08-31T06:49:50.780Z,0.50
2022-08-31T07:01:21.629Z,0.70
2022-08-31T07:04:13.010Z,1.00
2022-08-31T07:06:48.128Z,0.90
2022-08-31T07:09:29.620Z,1.00
2022-08-31T07:12:02.213Z,1.10
2022-08-31T07:14:32.079Z,0.90
2022-08-31T07:17:53.183Z,1.00
2022-08-31T07:20:22.546Z,0.90
2022-08-31T07:22:50.321Z,1.10
2022-08-31T07:25:18.545Z,1.02
2022-08-31T07:27:57.126Z,0.80
2022-08-31T07:30:28.982Z,1.30
2022-08-31T07:33:08.109Z,0.80
2022-08-31T07:35:36.143Z,0.82
2022-08-31T07:38:25.051Z,0.93
2022-08-31T07:41:11.819Z,0.80
2022-08-31T07:43:43.693Z,1.10
2022-08-31T07:46:36.363Z,0.90
2022-08-31T07:49:28.798Z,1.00
2022-08-31T07:51:58.504Z,1.00
2022-08-31T07:54:28.690Z,1.05
2022-08-31T07:57:08.885Z,0.60
2022-08-31T07:59:39.787Z,0.50
2022-08-31T08:02:17.881Z,1.17
2022-08-31T08:04:56.891Z,1.05
2022-08-31T08:07:40.126Z,0.95
2022-08-31T08:10:18.139Z,1.10
2022-08-31T08:12:53.951Z,1.08
2022-08-31T08:15:29.151Z,0.98
2022-08-31T08:18:06.041Z,1.15
2022-08-31T08:20:38.481Z,1.20
2022-08-31T08:23:13.609Z,1.15
2022-08-31T08:25:43.742Z,1.27
2022-08-31T08:31:24.379Z,0.88
2022-08-31T08:34:12.523Z,1.10
2022-08-31T08:39:36.245Z,0.80
2022-08-31T08:42:09.938Z,1.17
2022-08-31T08:45:18.522Z,1.10
2022-08-31T08:47:50.797Z,1.00
2022-08-31T08:50:23.371Z,0.90
2022-08-31T08:55:40.991Z,1.27
2022-08-31T08:58:20.346Z,0.90
2022-08-31T09:00:54.758Z,0.90
2022-08-31T09:03:50.963Z,1.20
2022-08-31T09:14:17.946Z,0.95
2022-08-31T09:17:18.191Z,1.10
2022-08-31T09:20:05.915Z,1.00
2022-08-31T09:22:54.399Z,1.33
2022-08-31T09:25:32.826Z,0.63
2022-08-31T09:28:04.859Z,1.10
2022-08-31T09:30:52.350Z,1.48
2022-08-31T09:33:27.362Z,1.38
2022-08-31T09:36:24.476Z,1.45
2022-08-31T09:39:13.433Z,1.15
2022-08-31T09:41:43.541Z,1.40
2022-08-31T09:50:47.399Z,1.33
2022-08-31T09:54:04.408Z,1.40
2022-08-31T09:57:01.152Z,1.38
2022-08-31T10:00:03.924Z,1.70
2022-08-31T10:06:00.239Z,1.40
2022-08-31T10:09:00.279Z,1.70
2022-08-31T10:11:33.082Z,1.02
2022-08-31T10:14:32.919Z,1.90
2022-08-31T10:20:36.011Z,1.63
2022-08-31T10:28:37.574Z,1.88
2022-08-31T10:31:42.403Z,1.15
2022-08-31T10:50:17.500Z,1.60
2022-08-31T10:53:22.656Z,2.13
2022-08-31T11:00:15.962Z,2.22
2022-08-31T11:03:27.383Z,1.83
2022-08-31T11:07:01.288Z,2.30
2022-08-31T11:10:21.268Z,2.15
2022-08-31T11:12:57.400Z,2.03
2022-08-31T11:15:48.267Z,2.20
2022-08-31T11:18:52.189Z,1.77
2022-08-31T11:21:35.945Z,2.22
2022-08-31T11:24:41.557Z,2.45
2022-08-31T11:27:25.963Z,2.25
2022-08-31T11:33:47.386Z,2.08
2022-08-31T11:36:42.773Z,2.45
2022-08-31T11:39:10.354Z,2.50
2022-08-31T11:41:39.835Z,2.58
2022-08-31T11:44:10.322Z,2.30
2022-08-31T11:46:41.459Z,2.50
2022-08-31T11:49:11.231Z,1.95
2022-08-31T12:03:11.070Z,2.13
2022-08-31T12:05:51.724Z,2.45
2022-08-31T12:08:20.721Z,1.80
2022-08-31T12:11:16.720Z,2.20
2022-08-31T12:14:01.683Z,2.38
2022-08-31T12:16:47.917Z,2.30
2022-08-31T12:19:43.357Z,2.05
2022-08-31T12:22:58.387Z,2.20
2022-08-31T12:25:44.785Z,2.40
2022-08-31T12:28:31.698Z,2.47
2022-08-31T12:31:06.133Z,2.17
2022-08-31T12:33:40.704Z,1.63
2022-08-31T12:36:20.395Z,2.08
2022-08-31T12:39:09.978Z,2.03
2022-08-31T12:41:59.436Z,1.90
2022-08-31T12:44:39.081Z,1.92
2022-08-31T12:47:16.950Z,1.58
2022-08-31T12:50:11.233Z,2.22
2022-08-31T12:53:02.996Z,1.80
2022-08-31T12:55:33.229Z,1.80
2022-08-31T12:58:20.080Z,1.90
2022-08-31T13:00:47.596Z,2.05
2022-08-31T13:03:29.183Z,2.00
2022-08-31T13:06:08.430Z,2.10
2022-08-31T13:08:42.203Z,1.60
2022-08-31T13:11:35.291Z,1.77
2022-08-31T13:14:25.880Z,1.80
2022-08-31T13:17:22.125Z,1.85
2022-08-31T13:19:55.960Z,1.65
2022-08-31T13:22:32.557Z,1.80
2022-08-31T13:25:17.019Z,1.05
2022-08-31T13:27:50.261Z,1.58
2022-08-31T13:30:25.660Z,1.42
2022-08-31T13:32:54.934Z,1.60
2022-08-31T13:35:28.293Z,1.25
2022-08-31T13:38:06.039Z,0.93
2022-08-31T13:40:37.716Z,1.40
2022-08-31T13:43:09.938Z,1.60
2022-08-31T13:45:58.665Z,2.00
2022-08-31T13:48:40.737Z,2.85
2022-08-31T13:51:17.329Z,3.33
2022-08-31T13:54:06.121Z,1.98
2022-08-31T13:57:10.090Z,1.58
2022-08-31T13:59:41.239Z,1.50
2022-08-31T14:02:16.325Z,1.48
2022-08-31T14:04:44.372Z,1.50
2022-08-31T14:07:21.853Z,1.10
2022-08-31T14:10:21.573Z,1.52
2022-08-31T14:13:14.194Z,1.30
2022-08-31T14:15:56.628Z,1.30
2022-08-31T14:18:33.295Z,1.25
2022-08-31T14:21:23.181Z,1.15
2022-08-31T14:24:02.678Z,0.68
2022-08-31T14:26:41.892Z,0.50
2022-08-31T14:29:16.726Z,1.40
2022-08-31T14:31:55.071Z,1.20
2022-08-31T14:34:25.167Z,1.08
2022-08-31T14:37:08.345Z,1.50
2022-08-31T14:39:38.615Z,1.83
2022-08-31T14:42:25.590Z,2.00
2022-08-31T14:45:06.545Z,2.00
2022-08-31T14:47:37.463Z,1.45
2022-08-31T14:50:05.897Z,1.48
2022-08-31T14:52:53.625Z,1.77
2022-08-31T14:55:26.530Z,2.58
2022-08-31T14:58:02.333Z,4.57
2022-08-31T15:00:31.938Z,2.35
2022-08-31T15:03:01.277Z,2.75
2022-08-31T15:05:29.047Z,1.67
2022-08-31T15:07:57.348Z,1.50
2022-08-31T15:10:28.041Z,1.15
2022-08-31T15:12:56.075Z,1.25
2022-08-31T15:15:23.964Z,1.27
2022-08-31T15:18:15.093Z,1.33
2022-08-31T15:20:42.871Z,1.00
2022-08-31T15:23:10.418Z,1.30
2022-08-31T15:25:39.784Z,2.75
2022-08-31T15:28:08.881Z,1.80
2022-08-31T15:30:40.222Z,2.78
2022-08-31T15:33:11.232Z,2.00
2022-08-31T15:35:42.012Z,1.40
2022-08-31T15:38:10.640Z,1.90
2022-08-31T15:40:39.245Z,1.65
2022-08-31T15:43:09.775Z,1.15
2022-08-31T15:45:37.881Z,1.40
2022-08-31T15:48:24.374Z,1.20
2022-08-31T15:51:00.510Z,1.80
2022-08-31T15:53:29.794Z,1.40
2022-08-31T15:56:05.868Z,1.20
2022-08-31T15:58:34.927Z,1.40
2022-08-31T16:01:05.325Z,1.50
2022-08-31T16:03:35.101Z,1.00
2022-08-31T16:06:05.581Z,1.83
2022-08-31T16:08:33.149Z,1.27
2022-08-31T16:11:00.636Z,1.10
2022-08-31T16:13:28.640Z,1.10
2022-08-31T16:15:56.517Z,1.27
2022-08-31T16:18:24.877Z,1.08
2022-08-31T16:20:52.423Z,1.13
2022-08-31T16:23:21.225Z,1.20
2022-08-31T16:25:49.431Z,1.15
2022-08-31T16:28:21.647Z,0.90
2022-08-31T16:30:51.318Z,1.00
2022-08-31T16:33:19.724Z,1.05
2022-08-31T16:35:48.018Z,1.00
2022-08-31T16:38:16.289Z,1.00
2022-08-31T16:40:44.527Z,1.00
2022-08-31T16:43:12.630Z,2.92
2022-08-31T16:45:41.846Z,1.02
2022-08-31T16:48:29.986Z,1.00
2022-08-31T16:51:00.266Z,1.00
2022-08-31T16:53:28.788Z,1.00
2022-08-31T16:55:59.168Z,1.00
2022-08-31T16:58:51.279Z,1.27
2022-08-31T17:01:23.876Z,1.10
2022-08-31T17:03:56.147Z,1.00
2022-08-31T17:06:33.968Z,0.90
2022-08-31T17:09:05.573Z,0.90
2022-08-31T17:11:37.955Z,0.80
2022-08-31T17:14:13.592Z,1.10
2022-08-31T17:16:41.318Z,1.10
2022-08-31T17:19:13.358Z,1.00
2022-08-31T17:21:51.341Z,0.77
2022-08-31T17:24:23.361Z,0.90
2022-08-31T17:26:59.712Z,1.50
2022-08-31T17:29:32.272Z,1.02
2022-08-31T17:32:08.643Z,0.90
2022-08-31T17:34:37.857Z,1.10
2022-08-31T17:37:13.282Z,0.80
2022-08-31T17:39:42.021Z,0.73
2022-08-31T17:42:10.073Z,0.90
2022-08-31T17:44:39.177Z,0.70
2022-08-31T17:47:08.454Z,1.00
2022-08-31T17:49:43.208Z,0.90
2022-08-31T17:52:14.057Z,0.88
2022-08-31T17:54:43.506Z,0.90
2022-08-31T17:57:14.589Z,1.20
2022-08-31T17:59:46.854Z,0.90
2022-08-31T18:02:18.161Z,0.85
2022-08-31T18:04:46.028Z,0.80
2022-08-31T18:07:17.837Z,1.00
2022-08-31T18:09:47.061Z,1.02
2022-08-31T18:12:16.568Z,0.75
2022-08-31T18:14:44.812Z,0.75
2022-08-31T18:17:16.451Z,0.88
2022-08-31T18:19:45.536Z,0.80
2022-08-31T18:22:14.708Z,0.85
2022-08-31T18:24:51.564Z,0.80
2022-08-31T18:27:19.099Z,0.80
2022-08-31T18:29:46.633Z,0.70
2022-08-31T18:32:17.683Z,0.80
2022-08-31T18:34:46.313Z,0.60
2022-08-31T18:37:16.342Z,0.75
2022-08-31T18:40:06.484Z,0.70
2022-08-31T18:42:57.372Z,0.93
2022-08-31T18:45:26.981Z,0.80
2022-08-31T18:50:47.305Z,0.80
2022-08-31T18:53:28.868Z,0.80
2022-08-31T18:56:09.520Z,0.85
2022-08-31T18:58:38.683Z,0.80
2022-08-31T19:01:10.593Z,0.80
2022-08-31T19:03:38.590Z,0.70
2022-08-31T19:06:07.550Z,0.70
2022-08-31T19:08:35.468Z,0.80
2022-08-31T19:11:07.388Z,0.70
2022-08-31T19:13:34.918Z,0.98
2022-08-31T19:16:14.853Z,1.20
2022-08-31T19:18:44.327Z,0.77
2022-08-31T19:21:15.867Z,0.82
2022-08-31T19:23:44.143Z,0.80
2022-08-31T19:26:19.305Z,0.80
2022-08-31T19:28:49.646Z,0.70
2022-08-31T19:31:20.598Z,0.90
2022-08-31T19:33:49.106Z,0.70
2022-08-31T19:36:17.377Z,0.60
2022-08-31T19:38:46.631Z,0.90
2022-08-31T19:41:22.854Z,0.70
2022-08-31T19:43:55.993Z,0.70
2022-08-31T19:46:35.001Z,0.50
2022-08-31T19:49:03.368Z,0.70
2022-08-31T19:51:31.478Z,0.80
2022-08-31T19:54:01.410Z,0.57
2022-08-31T19:56:31.689Z,0.75
2022-08-31T19:58:59.879Z,0.95
2022-08-31T20:01:34.010Z,0.73
2022-08-31T20:04:04.526Z,0.70
2022-08-31T20:06:32.695Z,0.88
2022-08-31T20:09:00.932Z,0.80
2022-08-31T20:11:30.703Z,0.90
2022-08-31T20:13:59.699Z,0.70
2022-08-31T20:16:33.596Z,0.70
2022-08-31T20:19:04.544Z,0.80
2022-08-31T20:21:35.210Z,0.90
2022-08-31T20:24:06.478Z,0.80
2022-08-31T20:26:47.465Z,0.60
2022-08-31T20:29:20.250Z,0.68
2022-08-31T20:31:51.273Z,0.70
2022-08-31T20:34:22.327Z,0.75
2022-08-31T20:37:00.416Z,0.70
2022-08-31T20:39:29.741Z,0.70
2022-08-31T20:41:59.576Z,0.80
2022-08-31T20:44:33.830Z,0.60
2022-08-31T20:47:23.032Z,0.85
2022-08-31T20:49:59.287Z,0.75
2022-08-31T20:52:32.267Z,0.80
2022-08-31T20:55:02.574Z,0.93
2022-08-31T20:57:32.358Z,0.70
2022-08-31T21:00:03.209Z,0.80
2022-08-31T21:02:32.015Z,0.55
2022-08-31T21:05:15.214Z,0.70
2022-08-31T21:07:48.142Z,0.70
2022-08-31T21:10:16.142Z,0.70
2022-08-31T21:12:53.267Z,0.70
2022-08-31T21:15:28.889Z,0.73
2022-08-31T21:17:57.386Z,0.60
2022-08-31T21:20:25.768Z,0.88
2022-08-31T21:22:54.056Z,0.73
2022-08-31T21:25:21.708Z,0.60
2022-08-31T21:27:49.173Z,0.70
2022-08-31T21:30:17.313Z,0.80
2022-08-31T21:32:45.000Z,0.70
2022-08-31T21:35:15.306Z,0.77
2022-08-31T21:37:42.862Z,0.80
2022-08-31T21:40:11.092Z,0.90
2022-08-31T21:42:38.843Z,0.70
2022-08-31T21:45:07.536Z,0.90
2022-08-31T21:47:35.209Z,1.02
2022-08-31T21:50:03.217Z,0.70
2022-08-31T21:52:30.840Z,0.70
2022-08-31T21:54:58.618Z,0.80
2022-08-31T21:57:26.420Z,0.90
2022-08-31T21:59:54.080Z,0.63
2022-08-31T22:02:21.736Z,0.85
2022-08-31T22:04:49.255Z,0.70
2022-08-31T22:07:16.894Z,0.63
2022-08-31T22:09:45.311Z,0.70
2022-08-31T22:12:15.140Z,0.60
2022-08-31T22:14:45.240Z,0.70
2022-08-31T22:17:13.637Z,0.75
2022-08-31T22:19:43.530Z,0.80
2022-08-31T22:22:13.294Z,0.80
2022-08-31T22:24:42.169Z,0.80
2022-08-31T22:27:12.227Z,0.60
2022-08-31T22:29:40.920Z,0.77
2022-08-31T22:32:12.299Z,0.80
2022-08-31T22:34:42.075Z,0.80
2022-08-31T22:37:11.378Z,0.80
2022-08-31T22:39:40.249Z,0.90
2022-08-31T22:42:09.288Z,0.77
2022-08-31T22:44:37.772Z,0.80
2022-08-31T22:47:05.695Z,0.80
2022-08-31T22:49:33.268Z,0.90
2022-08-31T22:52:01.194Z,0.80
2022-08-31T22:54:28.934Z,0.77
2022-08-31T22:56:56.819Z,0.80
2022-08-31T22:59:30.593Z,0.70
2022-08-31T23:02:02.347Z,0.70
2022-08-31T23:04:33.496Z,0.80
2022-08-31T23:07:03.838Z,0.80
2022-08-31T23:09:34.227Z,0.70
2022-08-31T23:12:03.784Z,0.82
2022-08-31T23:14:33.015Z,0.70
2022-08-31T23:17:04.210Z,0.80
2022-08-31T23:19:37.284Z,0.70
2022-08-31T23:22:09.555Z,0.80
2022-08-31T23:24:47.208Z,0.90
2022-08-31T23:27:21.920Z,0.82
2022-08-31T23:29:57.175Z,0.90
2022-08-31T23:32:29.631Z,0.85
2022-08-31T23:34:58.578Z,0.77
2022-08-31T23:37:27.653Z,0.80
2022-08-31T23:39:56.848Z,0.70
2022-08-31T23:42:27.405Z,0.75
2022-08-31T23:44:55.600Z,0.70
2022-08-31T23:47:29.454Z,0.75
2022-08-31T23:49:59.809Z,0.60
2022-08-31T23:52:30.195Z,0.85
2022-08-31T23:55:00.523Z,0.93
2022-08-31T23:57:33.160Z,0.73
